<?xml version="1.0" encoding="utf-8"?>
<gpx xmlns:xsi="http://www.w3.org/2001/XMLSchema-instance" xmlns:xsd="http://www.w3.org/2001/XMLSchema" version="1.1" creator="NotARubicon.com All Rights Reserved. http://www.magellangps.com" xsi:schemaLocation="http://www.topografix.com/GPX/1/1 http://www.topografix.com/GPX/1/1/gpx.xsd http://www.groundspeak.com/cache/1/0 http://www.groundspeak.com/cache/1/0/cache.xsd http://www.magellangps.com/mgnext/0/2 http://www.magellangps.com/mgnext/0/2/mgn.xsd" xmlns="http://www.topografix.com/GPX/1/1">
   <trk>
      <name>Bessemer Rd Mine Camp</name>
      <desc/>
      <extensions>
         <mgn:extensions xmlns:mgn="http://www.magellangps.com/mgnext/0/2">
            <mgn:rating/>
            <mgn:difficulty>0</mgn:difficulty>
            <mgn:uuid>2e7bcbe5-516a-4d19-97a8-912e334e5e28</mgn:uuid>
         </mgn:extensions>
      </extensions>
      <trkseg>
         <trkpt lat="34.396023" lon="-116.742184">
            <ele>1036.597656</ele>
            <time>2021-01-09T18:02:48.000Z</time>
         </trkpt>
         <trkpt lat="34.394260" lon="-116.743284">
            <ele>1051.000000</ele>
            <time>2021-01-09T18:03:10.000Z</time>
         </trkpt>
         <trkpt lat="34.392637" lon="-116.744083">
            <ele>1060.597656</ele>
            <time>2021-01-09T18:03:28.000Z</time>
         </trkpt>
         <trkpt lat="34.391600" lon="-116.744464">
            <ele>1063.500000</ele>
            <time>2021-01-09T18:03:41.000Z</time>
         </trkpt>
         <trkpt lat="34.387659" lon="-116.745650">
            <ele>1063.500000</ele>
            <time>2021-01-09T18:04:44.000Z</time>
         </trkpt>
         <trkpt lat="34.387659" lon="-116.745650">
            <ele>1064.398438</ele>
            <time>2021-01-09T18:26:14.000Z</time>
         </trkpt>
         <trkpt lat="34.387552" lon="-116.745664">
            <ele>1064.398438</ele>
            <time>2021-01-09T18:26:15.000Z</time>
         </trkpt>
         <trkpt lat="34.386842" lon="-116.745802">
            <ele>1063.597656</ele>
            <time>2021-01-09T18:26:32.000Z</time>
         </trkpt>
         <trkpt lat="34.385776" lon="-116.746099">
            <ele>1061.199219</ele>
            <time>2021-01-09T18:26:48.000Z</time>
         </trkpt>
         <trkpt lat="34.385106" lon="-116.746347">
            <ele>1061.796875</ele>
            <time>2021-01-09T18:27:03.000Z</time>
         </trkpt>
         <trkpt lat="34.382886" lon="-116.747031">
            <ele>1072.199219</ele>
            <time>2021-01-09T18:27:44.000Z</time>
         </trkpt>
         <trkpt lat="34.379979" lon="-116.748175">
            <ele>1085.699219</ele>
            <time>2021-01-09T18:28:26.000Z</time>
         </trkpt>
         <trkpt lat="34.379579" lon="-116.748393">
            <ele>1087.097656</ele>
            <time>2021-01-09T18:28:31.000Z</time>
         </trkpt>
         <trkpt lat="34.378627" lon="-116.748951">
            <ele>1089.699219</ele>
            <time>2021-01-09T18:28:48.000Z</time>
         </trkpt>
         <trkpt lat="34.378627" lon="-116.748951">
            <ele>1089.796875</ele>
            <time>2021-01-09T18:28:57.000Z</time>
         </trkpt>
         <trkpt lat="34.378546" lon="-116.749000">
            <ele>1089.898438</ele>
            <time>2021-01-09T18:28:58.000Z</time>
         </trkpt>
         <trkpt lat="34.374953" lon="-116.751108">
            <ele>1109.097656</ele>
            <time>2021-01-09T18:30:00.000Z</time>
         </trkpt>
         <trkpt lat="34.374954" lon="-116.751108">
            <ele>1109.898438</ele>
            <time>2021-01-09T18:44:01.000Z</time>
         </trkpt>
         <trkpt lat="34.374861" lon="-116.751158">
            <ele>1109.898438</ele>
            <time>2021-01-09T18:44:02.000Z</time>
         </trkpt>
         <trkpt lat="34.374837" lon="-116.751169">
            <ele>1109.898438</ele>
            <time>2021-01-09T18:44:05.000Z</time>
         </trkpt>
         <trkpt lat="34.374588" lon="-116.751300">
            <ele>1110.296875</ele>
            <time>2021-01-09T18:44:12.000Z</time>
         </trkpt>
         <trkpt lat="34.372353" lon="-116.752499">
            <ele>1121.199219</ele>
            <time>2021-01-09T18:44:50.000Z</time>
         </trkpt>
         <trkpt lat="34.372061" lon="-116.752694">
            <ele>1123.000000</ele>
            <time>2021-01-09T18:44:55.000Z</time>
         </trkpt>
         <trkpt lat="34.371716" lon="-116.752955">
            <ele>1124.296875</ele>
            <time>2021-01-09T18:45:01.000Z</time>
         </trkpt>
         <trkpt lat="34.371657" lon="-116.752985">
            <ele>1124.398438</ele>
            <time>2021-01-09T18:45:02.000Z</time>
         </trkpt>
         <trkpt lat="34.371372" lon="-116.753125">
            <ele>1126.500000</ele>
            <time>2021-01-09T18:45:07.000Z</time>
         </trkpt>
         <trkpt lat="34.371162" lon="-116.753240">
            <ele>1128.097656</ele>
            <time>2021-01-09T18:45:11.000Z</time>
         </trkpt>
         <trkpt lat="34.370776" lon="-116.753419">
            <ele>1129.699219</ele>
            <time>2021-01-09T18:45:18.000Z</time>
         </trkpt>
         <trkpt lat="34.369935" lon="-116.754029">
            <ele>1135.500000</ele>
            <time>2021-01-09T18:45:33.000Z</time>
         </trkpt>
         <trkpt lat="34.368817" lon="-116.754879">
            <ele>1142.199219</ele>
            <time>2021-01-09T18:45:55.000Z</time>
         </trkpt>
         <trkpt lat="34.368768" lon="-116.754911">
            <ele>1142.500000</ele>
            <time>2021-01-09T18:45:56.000Z</time>
         </trkpt>
         <trkpt lat="34.367876" lon="-116.755521">
            <ele>1146.898438</ele>
            <time>2021-01-09T18:46:12.000Z</time>
         </trkpt>
         <trkpt lat="34.367418" lon="-116.755929">
            <ele>1150.199219</ele>
            <time>2021-01-09T18:46:21.000Z</time>
         </trkpt>
         <trkpt lat="34.367373" lon="-116.755977">
            <ele>1150.398438</ele>
            <time>2021-01-09T18:46:22.000Z</time>
         </trkpt>
         <trkpt lat="34.365947" lon="-116.757397">
            <ele>1160.000000</ele>
            <time>2021-01-09T18:46:53.000Z</time>
         </trkpt>
         <trkpt lat="34.365607" lon="-116.757714">
            <ele>1161.699219</ele>
            <time>2021-01-09T18:47:04.000Z</time>
         </trkpt>
         <trkpt lat="34.365459" lon="-116.757867">
            <ele>1162.796875</ele>
            <time>2021-01-09T18:47:08.000Z</time>
         </trkpt>
         <trkpt lat="34.364968" lon="-116.758305">
            <ele>1166.296875</ele>
            <time>2021-01-09T18:47:18.000Z</time>
         </trkpt>
         <trkpt lat="34.364821" lon="-116.758483">
            <ele>1167.796875</ele>
            <time>2021-01-09T18:47:21.000Z</time>
         </trkpt>
         <trkpt lat="34.364726" lon="-116.758615">
            <ele>1168.796875</ele>
            <time>2021-01-09T18:47:23.000Z</time>
         </trkpt>
         <trkpt lat="34.364554" lon="-116.758895">
            <ele>1170.898438</ele>
            <time>2021-01-09T18:47:27.000Z</time>
         </trkpt>
         <trkpt lat="34.362884" lon="-116.761772">
            <ele>1189.199219</ele>
            <time>2021-01-09T18:48:07.000Z</time>
         </trkpt>
         <trkpt lat="34.361994" lon="-116.763265">
            <ele>1199.296875</ele>
            <time>2021-01-09T18:48:31.000Z</time>
         </trkpt>
         <trkpt lat="34.361031" lon="-116.765091">
            <ele>1211.097656</ele>
            <time>2021-01-09T18:48:56.000Z</time>
         </trkpt>
         <trkpt lat="34.360790" lon="-116.765415">
            <ele>1213.296875</ele>
            <time>2021-01-09T18:49:01.000Z</time>
         </trkpt>
         <trkpt lat="34.360624" lon="-116.765600">
            <ele>1215.000000</ele>
            <time>2021-01-09T18:49:04.000Z</time>
         </trkpt>
         <trkpt lat="34.360279" lon="-116.765935">
            <ele>1218.699219</ele>
            <time>2021-01-09T18:49:10.000Z</time>
         </trkpt>
         <trkpt lat="34.360222" lon="-116.765983">
            <ele>1219.097656</ele>
            <time>2021-01-09T18:49:11.000Z</time>
         </trkpt>
         <trkpt lat="34.360162" lon="-116.766023">
            <ele>1219.500000</ele>
            <time>2021-01-09T18:49:12.000Z</time>
         </trkpt>
         <trkpt lat="34.359695" lon="-116.766355">
            <ele>1222.398438</ele>
            <time>2021-01-09T18:49:20.000Z</time>
         </trkpt>
         <trkpt lat="34.359405" lon="-116.766562">
            <ele>1224.898438</ele>
            <time>2021-01-09T18:49:25.000Z</time>
         </trkpt>
         <trkpt lat="34.358887" lon="-116.766888">
            <ele>1228.500000</ele>
            <time>2021-01-09T18:49:33.000Z</time>
         </trkpt>
         <trkpt lat="34.355598" lon="-116.768690">
            <ele>1254.898438</ele>
            <time>2021-01-09T18:50:26.000Z</time>
         </trkpt>
         <trkpt lat="34.355546" lon="-116.768726">
            <ele>1255.199219</ele>
            <time>2021-01-09T18:50:27.000Z</time>
         </trkpt>
         <trkpt lat="34.355046" lon="-116.769066">
            <ele>1260.000000</ele>
            <time>2021-01-09T18:50:36.000Z</time>
         </trkpt>
         <trkpt lat="34.354253" lon="-116.769491">
            <ele>1267.898438</ele>
            <time>2021-01-09T18:50:51.000Z</time>
         </trkpt>
         <trkpt lat="34.353153" lon="-116.770243">
            <ele>1277.500000</ele>
            <time>2021-01-09T18:51:16.000Z</time>
         </trkpt>
         <trkpt lat="34.352920" lon="-116.770436">
            <ele>1279.097656</ele>
            <time>2021-01-09T18:51:22.000Z</time>
         </trkpt>
         <trkpt lat="34.352335" lon="-116.770823">
            <ele>1285.296875</ele>
            <time>2021-01-09T18:51:37.000Z</time>
         </trkpt>
         <trkpt lat="34.352253" lon="-116.770891">
            <ele>1285.398438</ele>
            <time>2021-01-09T18:51:40.000Z</time>
         </trkpt>
         <trkpt lat="34.352238" lon="-116.770905">
            <ele>1285.699219</ele>
            <time>2021-01-09T18:51:43.000Z</time>
         </trkpt>
         <trkpt lat="34.352114" lon="-116.771011">
            <ele>1286.398438</ele>
            <time>2021-01-09T18:51:46.000Z</time>
         </trkpt>
         <trkpt lat="34.351955" lon="-116.771157">
            <ele>1288.000000</ele>
            <time>2021-01-09T18:51:51.000Z</time>
         </trkpt>
         <trkpt lat="34.351922" lon="-116.771181">
            <ele>1288.796875</ele>
            <time>2021-01-09T18:51:53.000Z</time>
         </trkpt>
         <trkpt lat="34.351852" lon="-116.771224">
            <ele>1289.500000</ele>
            <time>2021-01-09T18:51:54.000Z</time>
         </trkpt>
         <trkpt lat="34.351642" lon="-116.771355">
            <ele>1291.597656</ele>
            <time>2021-01-09T18:51:59.000Z</time>
         </trkpt>
         <extensions>
            <mgn:extensions xmlns:mgn="http://www.magellangps.com/mgnext/0/2">
               <mgn:onroute>0</mgn:onroute>
               <mgn:gpsloss>1</mgn:gpsloss>
            </mgn:extensions>
         </extensions>
      </trkseg>
      <trkseg>
         <trkpt lat="34.351570" lon="-116.771394">
            <ele>1292.199219</ele>
            <time>2021-01-09T18:52:01.000Z</time>
         </trkpt>
         <trkpt lat="34.351031" lon="-116.771774">
            <ele>1297.699219</ele>
            <time>2021-01-09T18:52:20.000Z</time>
         </trkpt>
         <trkpt lat="34.350650" lon="-116.772092">
            <ele>1300.097656</ele>
            <time>2021-01-09T18:52:33.000Z</time>
         </trkpt>
         <trkpt lat="34.350428" lon="-116.772305">
            <ele>1302.296875</ele>
            <time>2021-01-09T18:52:41.000Z</time>
         </trkpt>
         <trkpt lat="34.350402" lon="-116.772328">
            <ele>1302.796875</ele>
            <time>2021-01-09T18:52:43.000Z</time>
         </trkpt>
         <trkpt lat="34.350260" lon="-116.772440">
            <ele>1304.699219</ele>
            <time>2021-01-09T18:52:48.000Z</time>
         </trkpt>
         <trkpt lat="34.350149" lon="-116.772507">
            <ele>1305.796875</ele>
            <time>2021-01-09T18:52:52.000Z</time>
         </trkpt>
         <trkpt lat="34.350032" lon="-116.772586">
            <ele>1306.500000</ele>
            <time>2021-01-09T18:52:56.000Z</time>
         </trkpt>
         <trkpt lat="34.349755" lon="-116.772788">
            <ele>1309.699219</ele>
            <time>2021-01-09T18:53:05.000Z</time>
         </trkpt>
         <trkpt lat="34.349138" lon="-116.773171">
            <ele>1316.000000</ele>
            <time>2021-01-09T18:53:29.000Z</time>
         </trkpt>
         <trkpt lat="34.349117" lon="-116.773189">
            <ele>1316.500000</ele>
            <time>2021-01-09T18:53:32.000Z</time>
         </trkpt>
         <trkpt lat="34.349009" lon="-116.773288">
            <ele>1317.199219</ele>
            <time>2021-01-09T18:53:35.000Z</time>
         </trkpt>
         <trkpt lat="34.348887" lon="-116.773397">
            <ele>1318.597656</ele>
            <time>2021-01-09T18:53:41.000Z</time>
         </trkpt>
         <trkpt lat="34.348881" lon="-116.773400">
            <ele>1317.199219</ele>
            <time>2021-01-09T18:54:59.000Z</time>
         </trkpt>
         <trkpt lat="34.348796" lon="-116.773454">
            <ele>1317.398438</ele>
            <time>2021-01-09T18:55:00.000Z</time>
         </trkpt>
         <trkpt lat="34.348633" lon="-116.773575">
            <ele>1319.500000</ele>
            <time>2021-01-09T18:55:05.000Z</time>
         </trkpt>
         <trkpt lat="34.348347" lon="-116.773784">
            <ele>1322.500000</ele>
            <time>2021-01-09T18:55:16.000Z</time>
         </trkpt>
         <trkpt lat="34.348346" lon="-116.773784">
            <ele>1323.296875</ele>
            <time>2021-01-09T18:55:21.000Z</time>
         </trkpt>
         <trkpt lat="34.348251" lon="-116.773859">
            <ele>1323.597656</ele>
            <time>2021-01-09T18:55:22.000Z</time>
         </trkpt>
         <trkpt lat="34.347903" lon="-116.774164">
            <ele>1327.796875</ele>
            <time>2021-01-09T18:55:32.000Z</time>
         </trkpt>
         <trkpt lat="34.347797" lon="-116.774272">
            <ele>1329.000000</ele>
            <time>2021-01-09T18:55:35.000Z</time>
         </trkpt>
         <trkpt lat="34.347761" lon="-116.774301">
            <ele>1329.796875</ele>
            <time>2021-01-09T18:55:37.000Z</time>
         </trkpt>
         <trkpt lat="34.347473" lon="-116.774508">
            <ele>1333.000000</ele>
            <time>2021-01-09T18:55:44.000Z</time>
         </trkpt>
         <trkpt lat="34.347447" lon="-116.774546">
            <ele>1333.296875</ele>
            <time>2021-01-09T18:55:46.000Z</time>
         </trkpt>
         <trkpt lat="34.347422" lon="-116.774640">
            <ele>1333.398438</ele>
            <time>2021-01-09T18:55:47.000Z</time>
         </trkpt>
         <trkpt lat="34.347419" lon="-116.774696">
            <ele>1333.398438</ele>
            <time>2021-01-09T18:55:48.000Z</time>
         </trkpt>
         <trkpt lat="34.347425" lon="-116.774752">
            <ele>1333.398438</ele>
            <time>2021-01-09T18:55:49.000Z</time>
         </trkpt>
         <trkpt lat="34.347442" lon="-116.774807">
            <ele>1333.500000</ele>
            <time>2021-01-09T18:55:50.000Z</time>
         </trkpt>
         <trkpt lat="34.347467" lon="-116.774859">
            <ele>1333.597656</ele>
            <time>2021-01-09T18:55:51.000Z</time>
         </trkpt>
         <trkpt lat="34.347498" lon="-116.774907">
            <ele>1333.699219</ele>
            <time>2021-01-09T18:55:52.000Z</time>
         </trkpt>
         <trkpt lat="34.347535" lon="-116.774954">
            <ele>1333.296875</ele>
            <time>2021-01-09T18:55:53.000Z</time>
         </trkpt>
         <trkpt lat="34.349202" lon="-116.776963">
            <ele>1333.898438</ele>
            <time>2021-01-09T18:56:36.000Z</time>
         </trkpt>
         <trkpt lat="34.349264" lon="-116.777065">
            <ele>1334.199219</ele>
            <time>2021-01-09T18:56:38.000Z</time>
         </trkpt>
         <trkpt lat="34.349316" lon="-116.777172">
            <ele>1334.296875</ele>
            <time>2021-01-09T18:56:40.000Z</time>
         </trkpt>
         <trkpt lat="34.349336" lon="-116.777229">
            <ele>1334.500000</ele>
            <time>2021-01-09T18:56:41.000Z</time>
         </trkpt>
         <trkpt lat="34.349354" lon="-116.777286">
            <ele>1334.796875</ele>
            <time>2021-01-09T18:56:42.000Z</time>
         </trkpt>
         <trkpt lat="34.349380" lon="-116.777396">
            <ele>1334.500000</ele>
            <time>2021-01-09T18:56:44.000Z</time>
         </trkpt>
         <trkpt lat="34.349485" lon="-116.777871">
            <ele>1336.597656</ele>
            <time>2021-01-09T18:56:53.000Z</time>
         </trkpt>
         <trkpt lat="34.349508" lon="-116.777919">
            <ele>1336.199219</ele>
            <time>2021-01-09T18:56:54.000Z</time>
         </trkpt>
         <trkpt lat="34.349537" lon="-116.777967">
            <ele>1336.199219</ele>
            <time>2021-01-09T18:56:55.000Z</time>
         </trkpt>
         <trkpt lat="34.349571" lon="-116.778012">
            <ele>1337.199219</ele>
            <time>2021-01-09T18:56:56.000Z</time>
         </trkpt>
         <trkpt lat="34.349611" lon="-116.778055">
            <ele>1337.597656</ele>
            <time>2021-01-09T18:56:57.000Z</time>
         </trkpt>
         <trkpt lat="34.349652" lon="-116.778087">
            <ele>1337.796875</ele>
            <time>2021-01-09T18:56:58.000Z</time>
         </trkpt>
         <trkpt lat="34.349691" lon="-116.778119">
            <ele>1338.097656</ele>
            <time>2021-01-09T18:56:59.000Z</time>
         </trkpt>
         <trkpt lat="34.349725" lon="-116.778154">
            <ele>1339.097656</ele>
            <time>2021-01-09T18:57:01.000Z</time>
         </trkpt>
         <trkpt lat="34.349771" lon="-116.778235">
            <ele>1339.500000</ele>
            <time>2021-01-09T18:57:02.000Z</time>
         </trkpt>
         <trkpt lat="34.349779" lon="-116.778280">
            <ele>1340.199219</ele>
            <time>2021-01-09T18:57:04.000Z</time>
         </trkpt>
         <trkpt lat="34.349782" lon="-116.778372">
            <ele>1340.296875</ele>
            <time>2021-01-09T18:57:05.000Z</time>
         </trkpt>
         <trkpt lat="34.349796" lon="-116.778535">
            <ele>1339.898438</ele>
            <time>2021-01-09T18:57:08.000Z</time>
         </trkpt>
         <trkpt lat="34.349811" lon="-116.778594">
            <ele>1339.500000</ele>
            <time>2021-01-09T18:57:09.000Z</time>
         </trkpt>
         <trkpt lat="34.349830" lon="-116.778647">
            <ele>1339.597656</ele>
            <time>2021-01-09T18:57:10.000Z</time>
         </trkpt>
         <trkpt lat="34.349858" lon="-116.778691">
            <ele>1339.796875</ele>
            <time>2021-01-09T18:57:12.000Z</time>
         </trkpt>
         <trkpt lat="34.349917" lon="-116.778734">
            <ele>1339.898438</ele>
            <time>2021-01-09T18:57:13.000Z</time>
         </trkpt>
         <trkpt lat="34.349944" lon="-116.778743">
            <ele>1340.500000</ele>
            <time>2021-01-09T18:57:16.000Z</time>
         </trkpt>
         <trkpt lat="34.350036" lon="-116.778720">
            <ele>1340.898438</ele>
            <time>2021-01-09T18:57:17.000Z</time>
         </trkpt>
         <trkpt lat="34.350068" lon="-116.778703">
            <ele>1340.597656</ele>
            <time>2021-01-09T18:57:19.000Z</time>
         </trkpt>
         <trkpt lat="34.350137" lon="-116.778673">
            <ele>1340.097656</ele>
            <time>2021-01-09T18:57:20.000Z</time>
         </trkpt>
         <trkpt lat="34.350180" lon="-116.778663">
            <ele>1339.796875</ele>
            <time>2021-01-09T18:57:21.000Z</time>
         </trkpt>
         <trkpt lat="34.350227" lon="-116.778660">
            <ele>1340.000000</ele>
            <time>2021-01-09T18:57:22.000Z</time>
         </trkpt>
         <trkpt lat="34.350275" lon="-116.778660">
            <ele>1340.000000</ele>
            <time>2021-01-09T18:57:23.000Z</time>
         </trkpt>
         <trkpt lat="34.350636" lon="-116.778690">
            <ele>1339.898438</ele>
            <time>2021-01-09T18:57:32.000Z</time>
         </trkpt>
         <trkpt lat="34.350665" lon="-116.778696">
            <ele>1340.097656</ele>
            <time>2021-01-09T18:57:35.000Z</time>
         </trkpt>
         <trkpt lat="34.350734" lon="-116.778725">
            <ele>1340.000000</ele>
            <time>2021-01-09T18:57:36.000Z</time>
         </trkpt>
         <trkpt lat="34.350751" lon="-116.778742">
            <ele>1340.000000</ele>
            <time>2021-01-09T18:57:40.000Z</time>
         </trkpt>
         <trkpt lat="34.350807" lon="-116.778830">
            <ele>1339.898438</ele>
            <time>2021-01-09T18:57:41.000Z</time>
         </trkpt>
         <trkpt lat="34.350820" lon="-116.778856">
            <ele>1340.500000</ele>
            <time>2021-01-09T18:57:44.000Z</time>
         </trkpt>
         <trkpt lat="34.350864" lon="-116.778959">
            <ele>1340.699219</ele>
            <time>2021-01-09T18:57:45.000Z</time>
         </trkpt>
         <trkpt lat="34.350885" lon="-116.779000">
            <ele>1341.199219</ele>
            <time>2021-01-09T18:57:47.000Z</time>
         </trkpt>
         <trkpt lat="34.350966" lon="-116.779133">
            <ele>1341.597656</ele>
            <time>2021-01-09T18:57:49.000Z</time>
         </trkpt>
         <trkpt lat="34.351454" lon="-116.779784">
            <ele>1344.699219</ele>
            <time>2021-01-09T18:58:02.000Z</time>
         </trkpt>
         <trkpt lat="34.351898" lon="-116.780341">
            <ele>1350.500000</ele>
            <time>2021-01-09T18:58:13.000Z</time>
         </trkpt>
         <trkpt lat="34.351954" lon="-116.780436">
            <ele>1350.398438</ele>
            <time>2021-01-09T18:58:17.000Z</time>
         </trkpt>
         <trkpt lat="34.351958" lon="-116.780447">
            <ele>1350.000000</ele>
            <time>2021-01-09T18:58:23.000Z</time>
         </trkpt>
         <trkpt lat="34.352015" lon="-116.780523">
            <ele>1350.000000</ele>
            <time>2021-01-09T18:58:24.000Z</time>
         </trkpt>
         <trkpt lat="34.352102" lon="-116.780628">
            <ele>1350.796875</ele>
            <time>2021-01-09T18:58:30.000Z</time>
         </trkpt>
         <trkpt lat="34.352201" lon="-116.780752">
            <ele>1351.097656</ele>
            <time>2021-01-09T18:58:34.000Z</time>
         </trkpt>
         <trkpt lat="34.352281" lon="-116.780873">
            <ele>1351.000000</ele>
            <time>2021-01-09T18:58:37.000Z</time>
         </trkpt>
         <trkpt lat="34.352357" lon="-116.781007">
            <ele>1350.097656</ele>
            <time>2021-01-09T18:58:41.000Z</time>
         </trkpt>
         <trkpt lat="34.352373" lon="-116.781028">
            <ele>1350.699219</ele>
            <time>2021-01-09T18:58:43.000Z</time>
         </trkpt>
         <trkpt lat="34.352419" lon="-116.781086">
            <ele>1351.000000</ele>
            <time>2021-01-09T18:58:44.000Z</time>
         </trkpt>
         <trkpt lat="34.352450" lon="-116.781121">
            <ele>1351.796875</ele>
            <time>2021-01-09T18:58:46.000Z</time>
         </trkpt>
         <trkpt lat="34.352508" lon="-116.781201">
            <ele>1352.000000</ele>
            <time>2021-01-09T18:58:47.000Z</time>
         </trkpt>
         <trkpt lat="34.352536" lon="-116.781247">
            <ele>1352.097656</ele>
            <time>2021-01-09T18:58:48.000Z</time>
         </trkpt>
         <trkpt lat="34.352649" lon="-116.781456">
            <ele>1352.597656</ele>
            <time>2021-01-09T18:58:52.000Z</time>
         </trkpt>
         <trkpt lat="34.352830" lon="-116.781803">
            <ele>1351.597656</ele>
            <time>2021-01-09T18:58:58.000Z</time>
         </trkpt>
         <trkpt lat="34.353012" lon="-116.782070">
            <ele>1350.000000</ele>
            <time>2021-01-09T18:59:03.000Z</time>
         </trkpt>
         <trkpt lat="34.353096" lon="-116.782171">
            <ele>1349.296875</ele>
            <time>2021-01-09T18:59:06.000Z</time>
         </trkpt>
         <trkpt lat="34.353195" lon="-116.782272">
            <ele>1347.597656</ele>
            <time>2021-01-09T18:59:10.000Z</time>
         </trkpt>
         <trkpt lat="34.353305" lon="-116.782382">
            <ele>1345.796875</ele>
            <time>2021-01-09T18:59:14.000Z</time>
         </trkpt>
         <trkpt lat="34.353332" lon="-116.782417">
            <ele>1344.796875</ele>
            <time>2021-01-09T18:59:16.000Z</time>
         </trkpt>
         <trkpt lat="34.353503" lon="-116.782665">
            <ele>1342.796875</ele>
            <time>2021-01-09T18:59:21.000Z</time>
         </trkpt>
         <trkpt lat="34.353667" lon="-116.782941">
            <ele>1340.796875</ele>
            <time>2021-01-09T18:59:27.000Z</time>
         </trkpt>
         <trkpt lat="34.353694" lon="-116.782974">
            <ele>1339.597656</ele>
            <time>2021-01-09T18:59:29.000Z</time>
         </trkpt>
         <trkpt lat="34.353754" lon="-116.783031">
            <ele>1339.000000</ele>
            <time>2021-01-09T18:59:30.000Z</time>
         </trkpt>
         <trkpt lat="34.353785" lon="-116.783057">
            <ele>1337.699219</ele>
            <time>2021-01-09T18:59:32.000Z</time>
         </trkpt>
         <trkpt lat="34.353993" lon="-116.783203">
            <ele>1335.796875</ele>
            <time>2021-01-09T18:59:37.000Z</time>
         </trkpt>
         <trkpt lat="34.354442" lon="-116.783525">
            <ele>1330.898438</ele>
            <time>2021-01-09T18:59:49.000Z</time>
         </trkpt>
         <trkpt lat="34.354654" lon="-116.783724">
            <ele>1329.199219</ele>
            <time>2021-01-09T18:59:55.000Z</time>
         </trkpt>
         <trkpt lat="34.354788" lon="-116.783883">
            <ele>1328.000000</ele>
            <time>2021-01-09T18:59:59.000Z</time>
         </trkpt>
         <trkpt lat="34.354820" lon="-116.783927">
            <ele>1327.500000</ele>
            <time>2021-01-09T19:00:00.000Z</time>
         </trkpt>
         <trkpt lat="34.354846" lon="-116.783976">
            <ele>1327.296875</ele>
            <time>2021-01-09T19:00:01.000Z</time>
         </trkpt>
         <trkpt lat="34.355084" lon="-116.784381">
            <ele>1326.097656</ele>
            <time>2021-01-09T19:00:09.000Z</time>
         </trkpt>
         <trkpt lat="34.355580" lon="-116.785077">
            <ele>1326.597656</ele>
            <time>2021-01-09T19:00:22.000Z</time>
         </trkpt>
         <trkpt lat="34.356595" lon="-116.786401">
            <ele>1328.398438</ele>
            <time>2021-01-09T19:00:48.000Z</time>
         </trkpt>
         <trkpt lat="34.356720" lon="-116.786524">
            <ele>1328.796875</ele>
            <time>2021-01-09T19:00:51.000Z</time>
         </trkpt>
         <trkpt lat="34.356865" lon="-116.786639">
            <ele>1328.296875</ele>
            <time>2021-01-09T19:00:54.000Z</time>
         </trkpt>
         <trkpt lat="34.357007" lon="-116.786735">
            <ele>1328.199219</ele>
            <time>2021-01-09T19:00:57.000Z</time>
         </trkpt>
         <trkpt lat="34.357047" lon="-116.786755">
            <ele>1327.699219</ele>
            <time>2021-01-09T19:00:59.000Z</time>
         </trkpt>
         <trkpt lat="34.357297" lon="-116.786886">
            <ele>1329.699219</ele>
            <time>2021-01-09T19:01:04.000Z</time>
         </trkpt>
         <trkpt lat="34.357340" lon="-116.786916">
            <ele>1330.000000</ele>
            <time>2021-01-09T19:01:05.000Z</time>
         </trkpt>
         <trkpt lat="34.357381" lon="-116.786949">
            <ele>1330.398438</ele>
            <time>2021-01-09T19:01:06.000Z</time>
         </trkpt>
         <trkpt lat="34.357537" lon="-116.787094">
            <ele>1331.199219</ele>
            <time>2021-01-09T19:01:10.000Z</time>
         </trkpt>
         <trkpt lat="34.357606" lon="-116.787173">
            <ele>1331.500000</ele>
            <time>2021-01-09T19:01:12.000Z</time>
         </trkpt>
         <trkpt lat="34.357638" lon="-116.787213">
            <ele>1331.796875</ele>
            <time>2021-01-09T19:01:14.000Z</time>
         </trkpt>
         <trkpt lat="34.357693" lon="-116.787295">
            <ele>1331.898438</ele>
            <time>2021-01-09T19:01:15.000Z</time>
         </trkpt>
         <trkpt lat="34.357780" lon="-116.787445">
            <ele>1332.199219</ele>
            <time>2021-01-09T19:01:20.000Z</time>
         </trkpt>
         <trkpt lat="34.357784" lon="-116.787455">
            <ele>1329.500000</ele>
            <time>2021-01-09T19:09:28.000Z</time>
         </trkpt>
         <trkpt lat="34.357817" lon="-116.787565">
            <ele>1329.296875</ele>
            <time>2021-01-09T19:09:29.000Z</time>
         </trkpt>
         <trkpt lat="34.357838" lon="-116.787610">
            <ele>1329.296875</ele>
            <time>2021-01-09T19:09:31.000Z</time>
         </trkpt>
         <trkpt lat="34.358110" lon="-116.788187">
            <ele>1330.000000</ele>
            <time>2021-01-09T19:09:41.000Z</time>
         </trkpt>
         <trkpt lat="34.358197" lon="-116.788445">
            <ele>1331.699219</ele>
            <time>2021-01-09T19:09:47.000Z</time>
         </trkpt>
         <trkpt lat="34.358210" lon="-116.788494">
            <ele>1332.597656</ele>
            <time>2021-01-09T19:09:49.000Z</time>
         </trkpt>
         <trkpt lat="34.358225" lon="-116.788600">
            <ele>1332.898438</ele>
            <time>2021-01-09T19:09:50.000Z</time>
         </trkpt>
         <trkpt lat="34.358234" lon="-116.788711">
            <ele>1333.597656</ele>
            <time>2021-01-09T19:09:52.000Z</time>
         </trkpt>
         <trkpt lat="34.358232" lon="-116.788767">
            <ele>1333.597656</ele>
            <time>2021-01-09T19:09:53.000Z</time>
         </trkpt>
         <trkpt lat="34.358180" lon="-116.790165">
            <ele>1337.699219</ele>
            <time>2021-01-09T19:10:17.000Z</time>
         </trkpt>
         <trkpt lat="34.358183" lon="-116.790207">
            <ele>1337.796875</ele>
            <time>2021-01-09T19:10:19.000Z</time>
         </trkpt>
         <trkpt lat="34.358196" lon="-116.790297">
            <ele>1337.796875</ele>
            <time>2021-01-09T19:10:20.000Z</time>
         </trkpt>
         <trkpt lat="34.358229" lon="-116.790442">
            <ele>1336.898438</ele>
            <time>2021-01-09T19:10:23.000Z</time>
         </trkpt>
         <trkpt lat="34.358247" lon="-116.790499">
            <ele>1336.597656</ele>
            <time>2021-01-09T19:10:24.000Z</time>
         </trkpt>
         <trkpt lat="34.358546" lon="-116.791302">
            <ele>1333.097656</ele>
            <time>2021-01-09T19:10:35.000Z</time>
         </trkpt>
         <trkpt lat="34.358714" lon="-116.791739">
            <ele>1330.296875</ele>
            <time>2021-01-09T19:10:43.000Z</time>
         </trkpt>
         <trkpt lat="34.358733" lon="-116.791773">
            <ele>1329.199219</ele>
            <time>2021-01-09T19:10:45.000Z</time>
         </trkpt>
         <trkpt lat="34.358775" lon="-116.791822">
            <ele>1328.597656</ele>
            <time>2021-01-09T19:10:47.000Z</time>
         </trkpt>
         <trkpt lat="34.358851" lon="-116.791900">
            <ele>1328.199219</ele>
            <time>2021-01-09T19:10:51.000Z</time>
         </trkpt>
         <trkpt lat="34.358865" lon="-116.791918">
            <ele>1327.796875</ele>
            <time>2021-01-09T19:10:54.000Z</time>
         </trkpt>
         <trkpt lat="34.358902" lon="-116.792007">
            <ele>1327.597656</ele>
            <time>2021-01-09T19:10:55.000Z</time>
         </trkpt>
         <trkpt lat="34.358926" lon="-116.792048">
            <ele>1326.296875</ele>
            <time>2021-01-09T19:10:57.000Z</time>
         </trkpt>
         <trkpt lat="34.359008" lon="-116.792121">
            <ele>1326.097656</ele>
            <time>2021-01-09T19:10:58.000Z</time>
         </trkpt>
         <trkpt lat="34.359059" lon="-116.792152">
            <ele>1325.796875</ele>
            <time>2021-01-09T19:10:59.000Z</time>
         </trkpt>
         <trkpt lat="34.359111" lon="-116.792176">
            <ele>1325.199219</ele>
            <time>2021-01-09T19:11:00.000Z</time>
         </trkpt>
         <trkpt lat="34.359164" lon="-116.792190">
            <ele>1324.699219</ele>
            <time>2021-01-09T19:11:01.000Z</time>
         </trkpt>
         <trkpt lat="34.359655" lon="-116.792304">
            <ele>1320.199219</ele>
            <time>2021-01-09T19:11:10.000Z</time>
         </trkpt>
         <trkpt lat="34.360233" lon="-116.792328">
            <ele>1314.898438</ele>
            <time>2021-01-09T19:11:18.000Z</time>
         </trkpt>
         <trkpt lat="34.360360" lon="-116.792320">
            <ele>1313.597656</ele>
            <time>2021-01-09T19:11:20.000Z</time>
         </trkpt>
         <trkpt lat="34.360421" lon="-116.792310">
            <ele>1313.199219</ele>
            <time>2021-01-09T19:11:21.000Z</time>
         </trkpt>
         <trkpt lat="34.360589" lon="-116.792270">
            <ele>1312.000000</ele>
            <time>2021-01-09T19:11:24.000Z</time>
         </trkpt>
         <trkpt lat="34.360640" lon="-116.792266">
            <ele>1311.500000</ele>
            <time>2021-01-09T19:11:25.000Z</time>
         </trkpt>
         <trkpt lat="34.360850" lon="-116.792245">
            <ele>1310.000000</ele>
            <time>2021-01-09T19:11:31.000Z</time>
         </trkpt>
         <trkpt lat="34.360887" lon="-116.792242">
            <ele>1310.500000</ele>
            <time>2021-01-09T19:11:33.000Z</time>
         </trkpt>
         <trkpt lat="34.360963" lon="-116.792227">
            <ele>1311.000000</ele>
            <time>2021-01-09T19:11:34.000Z</time>
         </trkpt>
         <trkpt lat="34.361119" lon="-116.792188">
            <ele>1311.296875</ele>
            <time>2021-01-09T19:11:38.000Z</time>
         </trkpt>
         <trkpt lat="34.361206" lon="-116.792161">
            <ele>1311.296875</ele>
            <time>2021-01-09T19:11:41.000Z</time>
         </trkpt>
         <trkpt lat="34.361224" lon="-116.792160">
            <ele>1312.398438</ele>
            <time>2021-01-09T19:11:45.000Z</time>
         </trkpt>
         <trkpt lat="34.361302" lon="-116.792199">
            <ele>1313.000000</ele>
            <time>2021-01-09T19:11:46.000Z</time>
         </trkpt>
         <trkpt lat="34.361318" lon="-116.792222">
            <ele>1314.796875</ele>
            <time>2021-01-09T19:11:49.000Z</time>
         </trkpt>
         <trkpt lat="34.361347" lon="-116.792297">
            <ele>1315.097656</ele>
            <time>2021-01-09T19:11:50.000Z</time>
         </trkpt>
         <trkpt lat="34.361377" lon="-116.792404">
            <ele>1315.500000</ele>
            <time>2021-01-09T19:11:54.000Z</time>
         </trkpt>
         <trkpt lat="34.361386" lon="-116.792424">
            <ele>1315.898438</ele>
            <time>2021-01-09T19:12:10.000Z</time>
         </trkpt>
         <trkpt lat="34.361390" lon="-116.792516">
            <ele>1315.296875</ele>
            <time>2021-01-09T19:12:30.000Z</time>
         </trkpt>
         <trkpt lat="34.361446" lon="-116.792520">
            <ele>1315.296875</ele>
            <time>2021-01-09T19:12:32.000Z</time>
         </trkpt>
         <trkpt lat="34.361491" lon="-116.792576">
            <ele>1315.398438</ele>
            <time>2021-01-09T19:12:33.000Z</time>
         </trkpt>
         <trkpt lat="34.361517" lon="-116.792613">
            <ele>1315.796875</ele>
            <time>2021-01-09T19:12:35.000Z</time>
         </trkpt>
         <trkpt lat="34.361564" lon="-116.792696">
            <ele>1315.898438</ele>
            <time>2021-01-09T19:12:36.000Z</time>
         </trkpt>
         <trkpt lat="34.361584" lon="-116.792738">
            <ele>1316.000000</ele>
            <time>2021-01-09T19:12:38.000Z</time>
         </trkpt>
         <trkpt lat="34.361610" lon="-116.792828">
            <ele>1315.898438</ele>
            <time>2021-01-09T19:12:39.000Z</time>
         </trkpt>
         <trkpt lat="34.361617" lon="-116.792872">
            <ele>1315.597656</ele>
            <time>2021-01-09T19:12:41.000Z</time>
         </trkpt>
         <trkpt lat="34.361620" lon="-116.792963">
            <ele>1315.500000</ele>
            <time>2021-01-09T19:12:42.000Z</time>
         </trkpt>
         <trkpt lat="34.361617" lon="-116.793008">
            <ele>1315.500000</ele>
            <time>2021-01-09T19:12:44.000Z</time>
         </trkpt>
         <trkpt lat="34.361606" lon="-116.793098">
            <ele>1315.500000</ele>
            <time>2021-01-09T19:12:45.000Z</time>
         </trkpt>
         <trkpt lat="34.361597" lon="-116.793141">
            <ele>1315.898438</ele>
            <time>2021-01-09T19:12:47.000Z</time>
         </trkpt>
         <trkpt lat="34.361570" lon="-116.793222">
            <ele>1315.898438</ele>
            <time>2021-01-09T19:12:48.000Z</time>
         </trkpt>
         <trkpt lat="34.361555" lon="-116.793258">
            <ele>1316.699219</ele>
            <time>2021-01-09T19:12:50.000Z</time>
         </trkpt>
         <trkpt lat="34.361515" lon="-116.793331">
            <ele>1316.898438</ele>
            <time>2021-01-09T19:12:51.000Z</time>
         </trkpt>
         <trkpt lat="34.361492" lon="-116.793367">
            <ele>1317.097656</ele>
            <time>2021-01-09T19:12:53.000Z</time>
         </trkpt>
         <trkpt lat="34.361420" lon="-116.793466">
            <ele>1317.398438</ele>
            <time>2021-01-09T19:12:55.000Z</time>
         </trkpt>
         <trkpt lat="34.360974" lon="-116.793988">
            <ele>1320.097656</ele>
            <time>2021-01-09T19:13:10.000Z</time>
         </trkpt>
         <trkpt lat="34.360951" lon="-116.794030">
            <ele>1320.597656</ele>
            <time>2021-01-09T19:13:12.000Z</time>
         </trkpt>
         <trkpt lat="34.360642" lon="-116.794647">
            <ele>1326.796875</ele>
            <time>2021-01-09T19:13:25.000Z</time>
         </trkpt>
         <trkpt lat="34.360474" lon="-116.795057">
            <ele>1331.699219</ele>
            <time>2021-01-09T19:13:34.000Z</time>
         </trkpt>
         <trkpt lat="34.360459" lon="-116.795105">
            <ele>1332.699219</ele>
            <time>2021-01-09T19:13:36.000Z</time>
         </trkpt>
         <trkpt lat="34.360422" lon="-116.795257">
            <ele>1333.699219</ele>
            <time>2021-01-09T19:13:38.000Z</time>
         </trkpt>
         <trkpt lat="34.360413" lon="-116.795310">
            <ele>1334.597656</ele>
            <time>2021-01-09T19:13:40.000Z</time>
         </trkpt>
         <trkpt lat="34.360403" lon="-116.795414">
            <ele>1335.097656</ele>
            <time>2021-01-09T19:13:41.000Z</time>
         </trkpt>
         <trkpt lat="34.360402" lon="-116.795463">
            <ele>1335.898438</ele>
            <time>2021-01-09T19:13:43.000Z</time>
         </trkpt>
         <trkpt lat="34.360405" lon="-116.795558">
            <ele>1336.000000</ele>
            <time>2021-01-09T19:13:44.000Z</time>
         </trkpt>
         <trkpt lat="34.360427" lon="-116.796064">
            <ele>1336.796875</ele>
            <time>2021-01-09T19:13:54.000Z</time>
         </trkpt>
         <trkpt lat="34.360422" lon="-116.796105">
            <ele>1337.296875</ele>
            <time>2021-01-09T19:13:57.000Z</time>
         </trkpt>
         <trkpt lat="34.360389" lon="-116.796176">
            <ele>1337.296875</ele>
            <time>2021-01-09T19:13:59.000Z</time>
         </trkpt>
         <trkpt lat="34.360355" lon="-116.796202">
            <ele>1337.199219</ele>
            <time>2021-01-09T19:14:02.000Z</time>
         </trkpt>
         <trkpt lat="34.360279" lon="-116.796218">
            <ele>1337.097656</ele>
            <time>2021-01-09T19:14:03.000Z</time>
         </trkpt>
         <trkpt lat="34.360258" lon="-116.796216">
            <ele>1331.796875</ele>
            <time>2021-01-09T19:41:39.000Z</time>
         </trkpt>
         <trkpt lat="34.360191" lon="-116.796154">
            <ele>1333.296875</ele>
            <time>2021-01-09T19:41:40.000Z</time>
         </trkpt>
         <trkpt lat="34.360187" lon="-116.796129">
            <ele>1337.097656</ele>
            <time>2021-01-09T19:41:55.000Z</time>
         </trkpt>
         <trkpt lat="34.360294" lon="-116.796149">
            <ele>1337.097656</ele>
            <time>2021-01-09T19:41:56.000Z</time>
         </trkpt>
         <trkpt lat="34.360321" lon="-116.796154">
            <ele>1336.597656</ele>
            <time>2021-01-09T19:42:00.000Z</time>
         </trkpt>
         <trkpt lat="34.360395" lon="-116.796107">
            <ele>1336.000000</ele>
            <time>2021-01-09T19:42:01.000Z</time>
         </trkpt>
         <trkpt lat="34.360404" lon="-116.796078">
            <ele>1336.000000</ele>
            <time>2021-01-09T19:42:04.000Z</time>
         </trkpt>
         <trkpt lat="34.360411" lon="-116.795961">
            <ele>1335.796875</ele>
            <time>2021-01-09T19:42:05.000Z</time>
         </trkpt>
         <trkpt lat="34.360410" lon="-116.795912">
            <ele>1335.199219</ele>
            <time>2021-01-09T19:42:07.000Z</time>
         </trkpt>
         <trkpt lat="34.360389" lon="-116.795403">
            <ele>1332.699219</ele>
            <time>2021-01-09T19:42:15.000Z</time>
         </trkpt>
         <trkpt lat="34.360394" lon="-116.795343">
            <ele>1332.199219</ele>
            <time>2021-01-09T19:42:16.000Z</time>
         </trkpt>
         <trkpt lat="34.360403" lon="-116.795280">
            <ele>1331.597656</ele>
            <time>2021-01-09T19:42:17.000Z</time>
         </trkpt>
         <trkpt lat="34.360415" lon="-116.795219">
            <ele>1330.898438</ele>
            <time>2021-01-09T19:42:18.000Z</time>
         </trkpt>
         <trkpt lat="34.360445" lon="-116.795106">
            <ele>1329.796875</ele>
            <time>2021-01-09T19:42:20.000Z</time>
         </trkpt>
         <trkpt lat="34.360461" lon="-116.795055">
            <ele>1328.898438</ele>
            <time>2021-01-09T19:42:22.000Z</time>
         </trkpt>
         <trkpt lat="34.360524" lon="-116.794883">
            <ele>1327.597656</ele>
            <time>2021-01-09T19:42:25.000Z</time>
         </trkpt>
         <trkpt lat="34.360539" lon="-116.794845">
            <ele>1326.699219</ele>
            <time>2021-01-09T19:42:27.000Z</time>
         </trkpt>
         <trkpt lat="34.360649" lon="-116.794605">
            <ele>1324.796875</ele>
            <time>2021-01-09T19:42:33.000Z</time>
         </trkpt>
         <trkpt lat="34.360968" lon="-116.793977">
            <ele>1320.500000</ele>
            <time>2021-01-09T19:42:46.000Z</time>
         </trkpt>
         <trkpt lat="34.360993" lon="-116.793936">
            <ele>1320.097656</ele>
            <time>2021-01-09T19:42:48.000Z</time>
         </trkpt>
         <trkpt lat="34.361053" lon="-116.793856">
            <ele>1319.898438</ele>
            <time>2021-01-09T19:42:49.000Z</time>
         </trkpt>
         <trkpt lat="34.361123" lon="-116.793780">
            <ele>1319.500000</ele>
            <time>2021-01-09T19:42:51.000Z</time>
         </trkpt>
         <trkpt lat="34.361473" lon="-116.793379">
            <ele>1317.796875</ele>
            <time>2021-01-09T19:43:01.000Z</time>
         </trkpt>
         <trkpt lat="34.361530" lon="-116.793286">
            <ele>1317.597656</ele>
            <time>2021-01-09T19:43:03.000Z</time>
         </trkpt>
         <trkpt lat="34.361554" lon="-116.793239">
            <ele>1317.296875</ele>
            <time>2021-01-09T19:43:04.000Z</time>
         </trkpt>
         <trkpt lat="34.361573" lon="-116.793189">
            <ele>1317.097656</ele>
            <time>2021-01-09T19:43:05.000Z</time>
         </trkpt>
         <trkpt lat="34.361589" lon="-116.793136">
            <ele>1317.097656</ele>
            <time>2021-01-09T19:43:06.000Z</time>
         </trkpt>
         <trkpt lat="34.361602" lon="-116.793083">
            <ele>1317.000000</ele>
            <time>2021-01-09T19:43:07.000Z</time>
         </trkpt>
         <trkpt lat="34.361608" lon="-116.793029">
            <ele>1316.699219</ele>
            <time>2021-01-09T19:43:09.000Z</time>
         </trkpt>
         <trkpt lat="34.361611" lon="-116.792922">
            <ele>1316.500000</ele>
            <time>2021-01-09T19:43:10.000Z</time>
         </trkpt>
         <trkpt lat="34.361607" lon="-116.792869">
            <ele>1316.199219</ele>
            <time>2021-01-09T19:43:12.000Z</time>
         </trkpt>
         <trkpt lat="34.361586" lon="-116.792770">
            <ele>1316.000000</ele>
            <time>2021-01-09T19:43:13.000Z</time>
         </trkpt>
         <trkpt lat="34.361567" lon="-116.792723">
            <ele>1315.796875</ele>
            <time>2021-01-09T19:43:15.000Z</time>
         </trkpt>
         <trkpt lat="34.361523" lon="-116.792632">
            <ele>1315.699219</ele>
            <time>2021-01-09T19:43:16.000Z</time>
         </trkpt>
         <trkpt lat="34.361497" lon="-116.792589">
            <ele>1315.699219</ele>
            <time>2021-01-09T19:43:18.000Z</time>
         </trkpt>
         <trkpt lat="34.361394" lon="-116.792417">
            <ele>1316.097656</ele>
            <time>2021-01-09T19:43:24.000Z</time>
         </trkpt>
         <trkpt lat="34.361386" lon="-116.792397">
            <ele>1316.898438</ele>
            <time>2021-01-09T19:43:29.000Z</time>
         </trkpt>
         <trkpt lat="34.361358" lon="-116.792313">
            <ele>1316.898438</ele>
            <time>2021-01-09T19:43:31.000Z</time>
         </trkpt>
         <trkpt lat="34.361345" lon="-116.792285">
            <ele>1315.597656</ele>
            <time>2021-01-09T19:43:35.000Z</time>
         </trkpt>
         <trkpt lat="34.361313" lon="-116.792217">
            <ele>1314.097656</ele>
            <time>2021-01-09T19:43:37.000Z</time>
         </trkpt>
         <trkpt lat="34.361296" lon="-116.792189">
            <ele>1313.097656</ele>
            <time>2021-01-09T19:43:41.000Z</time>
         </trkpt>
         <trkpt lat="34.361236" lon="-116.792158">
            <ele>1312.597656</ele>
            <time>2021-01-09T19:43:43.000Z</time>
         </trkpt>
         <trkpt lat="34.361204" lon="-116.792149">
            <ele>1312.097656</ele>
            <time>2021-01-09T19:43:47.000Z</time>
         </trkpt>
         <trkpt lat="34.361121" lon="-116.792173">
            <ele>1312.199219</ele>
            <time>2021-01-09T19:43:48.000Z</time>
         </trkpt>
         <trkpt lat="34.360864" lon="-116.792237">
            <ele>1310.097656</ele>
            <time>2021-01-09T19:43:57.000Z</time>
         </trkpt>
         <trkpt lat="34.360841" lon="-116.792240">
            <ele>1310.296875</ele>
            <time>2021-01-09T19:44:00.000Z</time>
         </trkpt>
         <trkpt lat="34.360724" lon="-116.792251">
            <ele>1309.898438</ele>
            <time>2021-01-09T19:44:02.000Z</time>
         </trkpt>
         <trkpt lat="34.360558" lon="-116.792272">
            <ele>1310.398438</ele>
            <time>2021-01-09T19:44:07.000Z</time>
         </trkpt>
         <trkpt lat="34.360530" lon="-116.792279">
            <ele>1310.796875</ele>
            <time>2021-01-09T19:44:09.000Z</time>
         </trkpt>
         <trkpt lat="34.360332" lon="-116.792329">
            <ele>1312.097656</ele>
            <time>2021-01-09T19:44:15.000Z</time>
         </trkpt>
         <trkpt lat="34.360306" lon="-116.792331">
            <ele>1313.097656</ele>
            <time>2021-01-09T19:44:18.000Z</time>
         </trkpt>
         <trkpt lat="34.360120" lon="-116.792332">
            <ele>1313.597656</ele>
            <time>2021-01-09T19:44:23.000Z</time>
         </trkpt>
         <trkpt lat="34.359609" lon="-116.792308">
            <ele>1318.000000</ele>
            <time>2021-01-09T19:44:38.000Z</time>
         </trkpt>
         <trkpt lat="34.359577" lon="-116.792302">
            <ele>1318.398438</ele>
            <time>2021-01-09T19:44:40.000Z</time>
         </trkpt>
         <trkpt lat="34.359510" lon="-116.792288">
            <ele>1318.699219</ele>
            <time>2021-01-09T19:44:41.000Z</time>
         </trkpt>
         <trkpt lat="34.359231" lon="-116.792221">
            <ele>1321.000000</ele>
            <time>2021-01-09T19:44:49.000Z</time>
         </trkpt>
         <trkpt lat="34.359099" lon="-116.792182">
            <ele>1322.699219</ele>
            <time>2021-01-09T19:44:53.000Z</time>
         </trkpt>
         <trkpt lat="34.359066" lon="-116.792165">
            <ele>1323.699219</ele>
            <time>2021-01-09T19:44:55.000Z</time>
         </trkpt>
         <trkpt lat="34.358997" lon="-116.792124">
            <ele>1324.097656</ele>
            <time>2021-01-09T19:44:56.000Z</time>
         </trkpt>
         <trkpt lat="34.358963" lon="-116.792098">
            <ele>1325.296875</ele>
            <time>2021-01-09T19:44:58.000Z</time>
         </trkpt>
         <trkpt lat="34.358904" lon="-116.792033">
            <ele>1325.398438</ele>
            <time>2021-01-09T19:44:59.000Z</time>
         </trkpt>
         <trkpt lat="34.358884" lon="-116.791998">
            <ele>1325.796875</ele>
            <time>2021-01-09T19:45:02.000Z</time>
         </trkpt>
         <trkpt lat="34.358857" lon="-116.791926">
            <ele>1325.500000</ele>
            <time>2021-01-09T19:45:04.000Z</time>
         </trkpt>
         <trkpt lat="34.358828" lon="-116.791883">
            <ele>1326.000000</ele>
            <time>2021-01-09T19:45:06.000Z</time>
         </trkpt>
         <trkpt lat="34.358785" lon="-116.791841">
            <ele>1326.597656</ele>
            <time>2021-01-09T19:45:08.000Z</time>
         </trkpt>
         <trkpt lat="34.358734" lon="-116.791782">
            <ele>1326.898438</ele>
            <time>2021-01-09T19:45:09.000Z</time>
         </trkpt>
         <trkpt lat="34.358711" lon="-116.791741">
            <ele>1327.597656</ele>
            <time>2021-01-09T19:45:11.000Z</time>
         </trkpt>
         <trkpt lat="34.358669" lon="-116.791654">
            <ele>1327.898438</ele>
            <time>2021-01-09T19:45:12.000Z</time>
         </trkpt>
         <trkpt lat="34.358654" lon="-116.791609">
            <ele>1328.500000</ele>
            <time>2021-01-09T19:45:14.000Z</time>
         </trkpt>
         <trkpt lat="34.358580" lon="-116.791397">
            <ele>1330.597656</ele>
            <time>2021-01-09T19:45:18.000Z</time>
         </trkpt>
         <trkpt lat="34.358193" lon="-116.790356">
            <ele>1337.000000</ele>
            <time>2021-01-09T19:45:36.000Z</time>
         </trkpt>
         <trkpt lat="34.358177" lon="-116.790287">
            <ele>1336.898438</ele>
            <time>2021-01-09T19:45:37.000Z</time>
         </trkpt>
         <trkpt lat="34.358167" lon="-116.790215">
            <ele>1336.699219</ele>
            <time>2021-01-09T19:45:38.000Z</time>
         </trkpt>
         <trkpt lat="34.358162" lon="-116.790148">
            <ele>1336.699219</ele>
            <time>2021-01-09T19:45:39.000Z</time>
         </trkpt>
         <trkpt lat="34.358160" lon="-116.790030">
            <ele>1336.597656</ele>
            <time>2021-01-09T19:45:41.000Z</time>
         </trkpt>
         <trkpt lat="34.358201" lon="-116.788922">
            <ele>1333.097656</ele>
            <time>2021-01-09T19:46:04.000Z</time>
         </trkpt>
         <trkpt lat="34.358220" lon="-116.788739">
            <ele>1332.796875</ele>
            <time>2021-01-09T19:46:09.000Z</time>
         </trkpt>
         <trkpt lat="34.358220" lon="-116.788692">
            <ele>1331.898438</ele>
            <time>2021-01-09T19:46:11.000Z</time>
         </trkpt>
         <trkpt lat="34.358211" lon="-116.788592">
            <ele>1331.398438</ele>
            <time>2021-01-09T19:46:12.000Z</time>
         </trkpt>
         <trkpt lat="34.358204" lon="-116.788542">
            <ele>1330.296875</ele>
            <time>2021-01-09T19:46:14.000Z</time>
         </trkpt>
         <trkpt lat="34.358180" lon="-116.788439">
            <ele>1329.796875</ele>
            <time>2021-01-09T19:46:15.000Z</time>
         </trkpt>
         <trkpt lat="34.358166" lon="-116.788390">
            <ele>1329.500000</ele>
            <time>2021-01-09T19:46:17.000Z</time>
         </trkpt>
         <trkpt lat="34.358066" lon="-116.788072">
            <ele>1328.796875</ele>
            <time>2021-01-09T19:46:24.000Z</time>
         </trkpt>
         <trkpt lat="34.358010" lon="-116.787941">
            <ele>1328.199219</ele>
            <time>2021-01-09T19:46:27.000Z</time>
         </trkpt>
         <trkpt lat="34.357917" lon="-116.787755">
            <ele>1327.097656</ele>
            <time>2021-01-09T19:46:32.000Z</time>
         </trkpt>
         <trkpt lat="34.357620" lon="-116.787216">
            <ele>1326.699219</ele>
            <time>2021-01-09T19:46:54.000Z</time>
         </trkpt>
         <trkpt lat="34.357606" lon="-116.787198">
            <ele>1326.699219</ele>
            <time>2021-01-09T19:46:58.000Z</time>
         </trkpt>
         <trkpt lat="34.357546" lon="-116.787131">
            <ele>1326.699219</ele>
            <time>2021-01-09T19:46:59.000Z</time>
         </trkpt>
         <trkpt lat="34.357420" lon="-116.787004">
            <ele>1325.796875</ele>
            <time>2021-01-09T19:47:09.000Z</time>
         </trkpt>
         <trkpt lat="34.357420" lon="-116.787003">
            <ele>1324.898438</ele>
            <time>2021-01-09T19:48:23.000Z</time>
         </trkpt>
         <trkpt lat="34.357340" lon="-116.786922">
            <ele>1324.796875</ele>
            <time>2021-01-09T19:48:24.000Z</time>
         </trkpt>
         <trkpt lat="34.357323" lon="-116.786909">
            <ele>1323.398438</ele>
            <time>2021-01-09T19:48:28.000Z</time>
         </trkpt>
         <trkpt lat="34.357208" lon="-116.786844">
            <ele>1323.398438</ele>
            <time>2021-01-09T19:48:30.000Z</time>
         </trkpt>
         <trkpt lat="34.357000" lon="-116.786735">
            <ele>1323.199219</ele>
            <time>2021-01-09T19:48:37.000Z</time>
         </trkpt>
         <trkpt lat="34.356975" lon="-116.786718">
            <ele>1323.500000</ele>
            <time>2021-01-09T19:48:40.000Z</time>
         </trkpt>
         <trkpt lat="34.356655" lon="-116.786484">
            <ele>1323.296875</ele>
            <time>2021-01-09T19:48:52.000Z</time>
         </trkpt>
         <trkpt lat="34.356639" lon="-116.786469">
            <ele>1322.699219</ele>
            <time>2021-01-09T19:48:58.000Z</time>
         </trkpt>
         <trkpt lat="34.356557" lon="-116.786383">
            <ele>1322.398438</ele>
            <time>2021-01-09T19:49:01.000Z</time>
         </trkpt>
         <trkpt lat="34.356549" lon="-116.786373">
            <ele>1321.597656</ele>
            <time>2021-01-09T19:49:06.000Z</time>
         </trkpt>
         <trkpt lat="34.356374" lon="-116.786170">
            <ele>1321.500000</ele>
            <time>2021-01-09T19:49:14.000Z</time>
         </trkpt>
         <trkpt lat="34.355937" lon="-116.785605">
            <ele>1323.000000</ele>
            <time>2021-01-09T19:49:37.000Z</time>
         </trkpt>
         <trkpt lat="34.354696" lon="-116.783793">
            <ele>1326.199219</ele>
            <time>2021-01-09T19:50:32.000Z</time>
         </trkpt>
         <trkpt lat="34.354502" lon="-116.783597">
            <ele>1326.796875</ele>
            <time>2021-01-09T19:50:39.000Z</time>
         </trkpt>
         <trkpt lat="34.354386" lon="-116.783498">
            <ele>1327.796875</ele>
            <time>2021-01-09T19:50:42.000Z</time>
         </trkpt>
         <trkpt lat="34.353675" lon="-116.782992">
            <ele>1337.097656</ele>
            <time>2021-01-09T19:50:57.000Z</time>
         </trkpt>
         <trkpt lat="34.353637" lon="-116.782944">
            <ele>1337.796875</ele>
            <time>2021-01-09T19:50:58.000Z</time>
         </trkpt>
         <trkpt lat="34.353603" lon="-116.782890">
            <ele>1338.296875</ele>
            <time>2021-01-09T19:50:59.000Z</time>
         </trkpt>
         <trkpt lat="34.353306" lon="-116.782410">
            <ele>1342.898438</ele>
            <time>2021-01-09T19:51:07.000Z</time>
         </trkpt>
         <trkpt lat="34.353212" lon="-116.782303">
            <ele>1344.199219</ele>
            <time>2021-01-09T19:51:10.000Z</time>
         </trkpt>
         <trkpt lat="34.352920" lon="-116.781984">
            <ele>1346.000000</ele>
            <time>2021-01-09T19:51:36.000Z</time>
         </trkpt>
         <trkpt lat="34.352820" lon="-116.781825">
            <ele>1347.000000</ele>
            <time>2021-01-09T19:51:40.000Z</time>
         </trkpt>
         <trkpt lat="34.352703" lon="-116.781611">
            <ele>1348.500000</ele>
            <time>2021-01-09T19:51:45.000Z</time>
         </trkpt>
         <trkpt lat="34.352489" lon="-116.781187">
            <ele>1349.000000</ele>
            <time>2021-01-09T19:51:55.000Z</time>
         </trkpt>
         <trkpt lat="34.352466" lon="-116.781151">
            <ele>1348.500000</ele>
            <time>2021-01-09T19:51:57.000Z</time>
         </trkpt>
         <trkpt lat="34.352417" lon="-116.781088">
            <ele>1348.296875</ele>
            <time>2021-01-09T19:51:58.000Z</time>
         </trkpt>
         <trkpt lat="34.352322" lon="-116.780968">
            <ele>1347.597656</ele>
            <time>2021-01-09T19:52:03.000Z</time>
         </trkpt>
         <trkpt lat="34.352152" lon="-116.780703">
            <ele>1348.199219</ele>
            <time>2021-01-09T19:52:13.000Z</time>
         </trkpt>
         <trkpt lat="34.352077" lon="-116.780617">
            <ele>1347.398438</ele>
            <time>2021-01-09T19:52:18.000Z</time>
         </trkpt>
         <trkpt lat="34.351935" lon="-116.780441">
            <ele>1347.199219</ele>
            <time>2021-01-09T19:52:32.000Z</time>
         </trkpt>
         <trkpt lat="34.351928" lon="-116.780427">
            <ele>1346.898438</ele>
            <time>2021-01-09T19:52:36.000Z</time>
         </trkpt>
         <trkpt lat="34.351871" lon="-116.780330">
            <ele>1346.699219</ele>
            <time>2021-01-09T19:52:37.000Z</time>
         </trkpt>
         <trkpt lat="34.351848" lon="-116.780295">
            <ele>1346.097656</ele>
            <time>2021-01-09T19:52:39.000Z</time>
         </trkpt>
         <trkpt lat="34.351698" lon="-116.780096">
            <ele>1344.699219</ele>
            <time>2021-01-09T19:52:43.000Z</time>
         </trkpt>
         <trkpt lat="34.350944" lon="-116.779140">
            <ele>1340.699219</ele>
            <time>2021-01-09T19:53:12.000Z</time>
         </trkpt>
         <trkpt lat="34.350885" lon="-116.779043">
            <ele>1340.398438</ele>
            <time>2021-01-09T19:53:15.000Z</time>
         </trkpt>
         <trkpt lat="34.350864" lon="-116.779005">
            <ele>1340.000000</ele>
            <time>2021-01-09T19:53:17.000Z</time>
         </trkpt>
         <trkpt lat="34.350826" lon="-116.778924">
            <ele>1339.699219</ele>
            <time>2021-01-09T19:53:18.000Z</time>
         </trkpt>
         <trkpt lat="34.350768" lon="-116.778802">
            <ele>1339.097656</ele>
            <time>2021-01-09T19:53:22.000Z</time>
         </trkpt>
         <trkpt lat="34.350755" lon="-116.778782">
            <ele>1338.699219</ele>
            <time>2021-01-09T19:53:26.000Z</time>
         </trkpt>
         <trkpt lat="34.350684" lon="-116.778717">
            <ele>1338.500000</ele>
            <time>2021-01-09T19:53:27.000Z</time>
         </trkpt>
         <trkpt lat="34.350664" lon="-116.778708">
            <ele>1337.398438</ele>
            <time>2021-01-09T19:53:31.000Z</time>
         </trkpt>
         <trkpt lat="34.350581" lon="-116.778687">
            <ele>1337.398438</ele>
            <time>2021-01-09T19:53:32.000Z</time>
         </trkpt>
         <trkpt lat="34.350554" lon="-116.778682">
            <ele>1337.097656</ele>
            <time>2021-01-09T19:53:35.000Z</time>
         </trkpt>
         <trkpt lat="34.350451" lon="-116.778671">
            <ele>1337.199219</ele>
            <time>2021-01-09T19:53:37.000Z</time>
         </trkpt>
         <trkpt lat="34.350195" lon="-116.778649">
            <ele>1337.500000</ele>
            <time>2021-01-09T19:53:45.000Z</time>
         </trkpt>
         <trkpt lat="34.350157" lon="-116.778653">
            <ele>1336.699219</ele>
            <time>2021-01-09T19:53:47.000Z</time>
         </trkpt>
         <trkpt lat="34.350086" lon="-116.778680">
            <ele>1336.296875</ele>
            <time>2021-01-09T19:53:48.000Z</time>
         </trkpt>
         <trkpt lat="34.349975" lon="-116.778740">
            <ele>1334.699219</ele>
            <time>2021-01-09T19:53:51.000Z</time>
         </trkpt>
         <trkpt lat="34.349936" lon="-116.778746">
            <ele>1334.500000</ele>
            <time>2021-01-09T19:53:53.000Z</time>
         </trkpt>
         <trkpt lat="34.349884" lon="-116.778733">
            <ele>1334.398438</ele>
            <time>2021-01-09T19:53:55.000Z</time>
         </trkpt>
         <trkpt lat="34.349848" lon="-116.778707">
            <ele>1334.398438</ele>
            <time>2021-01-09T19:53:57.000Z</time>
         </trkpt>
         <trkpt lat="34.349808" lon="-116.778656">
            <ele>1334.398438</ele>
            <time>2021-01-09T19:53:58.000Z</time>
         </trkpt>
         <trkpt lat="34.349794" lon="-116.778619">
            <ele>1336.097656</ele>
            <time>2021-01-09T19:54:00.000Z</time>
         </trkpt>
         <trkpt lat="34.349773" lon="-116.778533">
            <ele>1336.398438</ele>
            <time>2021-01-09T19:54:01.000Z</time>
         </trkpt>
         <trkpt lat="34.349767" lon="-116.778487">
            <ele>1336.796875</ele>
            <time>2021-01-09T19:54:03.000Z</time>
         </trkpt>
         <trkpt lat="34.349761" lon="-116.778388">
            <ele>1337.199219</ele>
            <time>2021-01-09T19:54:04.000Z</time>
         </trkpt>
         <trkpt lat="34.349761" lon="-116.778341">
            <ele>1336.898438</ele>
            <time>2021-01-09T19:54:06.000Z</time>
         </trkpt>
         <trkpt lat="34.349750" lon="-116.778245">
            <ele>1336.398438</ele>
            <time>2021-01-09T19:54:07.000Z</time>
         </trkpt>
         <trkpt lat="34.349735" lon="-116.778199">
            <ele>1335.597656</ele>
            <time>2021-01-09T19:54:09.000Z</time>
         </trkpt>
         <trkpt lat="34.349670" lon="-116.778118">
            <ele>1335.597656</ele>
            <time>2021-01-09T19:54:10.000Z</time>
         </trkpt>
         <trkpt lat="34.349627" lon="-116.778081">
            <ele>1335.199219</ele>
            <time>2021-01-09T19:54:11.000Z</time>
         </trkpt>
         <trkpt lat="34.349545" lon="-116.778011">
            <ele>1335.000000</ele>
            <time>2021-01-09T19:54:13.000Z</time>
         </trkpt>
         <trkpt lat="34.349515" lon="-116.777972">
            <ele>1334.500000</ele>
            <time>2021-01-09T19:54:15.000Z</time>
         </trkpt>
         <trkpt lat="34.349477" lon="-116.777904">
            <ele>1334.398438</ele>
            <time>2021-01-09T19:54:16.000Z</time>
         </trkpt>
         <trkpt lat="34.349462" lon="-116.777868">
            <ele>1333.500000</ele>
            <time>2021-01-09T19:54:18.000Z</time>
         </trkpt>
         <trkpt lat="34.349437" lon="-116.777790">
            <ele>1333.199219</ele>
            <time>2021-01-09T19:54:19.000Z</time>
         </trkpt>
         <trkpt lat="34.349427" lon="-116.777746">
            <ele>1333.597656</ele>
            <time>2021-01-09T19:54:21.000Z</time>
         </trkpt>
         <trkpt lat="34.349314" lon="-116.777221">
            <ele>1332.097656</ele>
            <time>2021-01-09T19:54:31.000Z</time>
         </trkpt>
         <trkpt lat="34.349289" lon="-116.777156">
            <ele>1331.898438</ele>
            <time>2021-01-09T19:54:32.000Z</time>
         </trkpt>
         <trkpt lat="34.349258" lon="-116.777090">
            <ele>1331.500000</ele>
            <time>2021-01-09T19:54:33.000Z</time>
         </trkpt>
         <trkpt lat="34.349221" lon="-116.777025">
            <ele>1331.097656</ele>
            <time>2021-01-09T19:54:34.000Z</time>
         </trkpt>
         <trkpt lat="34.349179" lon="-116.776960">
            <ele>1330.796875</ele>
            <time>2021-01-09T19:54:35.000Z</time>
         </trkpt>
         <trkpt lat="34.349035" lon="-116.776768">
            <ele>1330.699219</ele>
            <time>2021-01-09T19:54:38.000Z</time>
         </trkpt>
         <trkpt lat="34.347409" lon="-116.774825">
            <ele>1332.699219</ele>
            <time>2021-01-09T19:55:12.000Z</time>
         </trkpt>
         <trkpt lat="34.347370" lon="-116.774791">
            <ele>1332.796875</ele>
            <time>2021-01-09T19:55:13.000Z</time>
         </trkpt>
         <trkpt lat="34.347330" lon="-116.774769">
            <ele>1333.398438</ele>
            <time>2021-01-09T19:55:15.000Z</time>
         </trkpt>
         <trkpt lat="34.347253" lon="-116.774731">
            <ele>1333.597656</ele>
            <time>2021-01-09T19:55:16.000Z</time>
         </trkpt>
         <trkpt lat="34.347225" lon="-116.774719">
            <ele>1332.000000</ele>
            <time>2021-01-09T19:56:45.000Z</time>
         </trkpt>
         <trkpt lat="34.347160" lon="-116.774701">
            <ele>1332.296875</ele>
            <time>2021-01-09T19:56:46.000Z</time>
         </trkpt>
         <trkpt lat="34.347132" lon="-116.774705">
            <ele>1333.699219</ele>
            <time>2021-01-09T19:56:48.000Z</time>
         </trkpt>
         <trkpt lat="34.347065" lon="-116.774725">
            <ele>1333.898438</ele>
            <time>2021-01-09T19:56:49.000Z</time>
         </trkpt>
         <trkpt lat="34.346831" lon="-116.774777">
            <ele>1337.097656</ele>
            <time>2021-01-09T19:56:55.000Z</time>
         </trkpt>
         <trkpt lat="34.345941" lon="-116.774915">
            <ele>1342.796875</ele>
            <time>2021-01-09T19:57:19.000Z</time>
         </trkpt>
         <trkpt lat="34.345902" lon="-116.774918">
            <ele>1343.296875</ele>
            <time>2021-01-09T19:57:21.000Z</time>
         </trkpt>
         <trkpt lat="34.345784" lon="-116.774933">
            <ele>1344.500000</ele>
            <time>2021-01-09T19:57:23.000Z</time>
         </trkpt>
         <trkpt lat="34.345405" lon="-116.774969">
            <ele>1347.000000</ele>
            <time>2021-01-09T19:57:32.000Z</time>
         </trkpt>
         <trkpt lat="34.344756" lon="-116.774946">
            <ele>1353.699219</ele>
            <time>2021-01-09T19:57:48.000Z</time>
         </trkpt>
         <trkpt lat="34.344720" lon="-116.774937">
            <ele>1353.500000</ele>
            <time>2021-01-09T19:57:50.000Z</time>
         </trkpt>
         <trkpt lat="34.344646" lon="-116.774919">
            <ele>1353.796875</ele>
            <time>2021-01-09T19:57:51.000Z</time>
         </trkpt>
         <trkpt lat="34.344260" lon="-116.774817">
            <ele>1358.097656</ele>
            <time>2021-01-09T19:58:00.000Z</time>
         </trkpt>
         <trkpt lat="34.344214" lon="-116.774814">
            <ele>1358.296875</ele>
            <time>2021-01-09T19:58:01.000Z</time>
         </trkpt>
         <trkpt lat="34.342586" lon="-116.774778">
            <ele>1370.500000</ele>
            <time>2021-01-09T19:58:29.000Z</time>
         </trkpt>
         <trkpt lat="34.342524" lon="-116.774766">
            <ele>1371.597656</ele>
            <time>2021-01-09T19:58:30.000Z</time>
         </trkpt>
         <trkpt lat="34.342463" lon="-116.774747">
            <ele>1371.000000</ele>
            <time>2021-01-09T19:58:31.000Z</time>
         </trkpt>
         <trkpt lat="34.341938" lon="-116.774621">
            <ele>1372.898438</ele>
            <time>2021-01-09T19:58:40.000Z</time>
         </trkpt>
         <trkpt lat="34.341902" lon="-116.774618">
            <ele>1372.898438</ele>
            <time>2021-01-09T19:58:42.000Z</time>
         </trkpt>
         <trkpt lat="34.341768" lon="-116.774609">
            <ele>1373.398438</ele>
            <time>2021-01-09T19:58:47.000Z</time>
         </trkpt>
         <trkpt lat="34.341751" lon="-116.774603">
            <ele>1373.500000</ele>
            <time>2021-01-09T19:58:51.000Z</time>
         </trkpt>
         <trkpt lat="34.341665" lon="-116.774563">
            <ele>1373.199219</ele>
            <time>2021-01-09T19:58:53.000Z</time>
         </trkpt>
         <trkpt lat="34.341647" lon="-116.774550">
            <ele>1372.796875</ele>
            <time>2021-01-09T19:58:58.000Z</time>
         </trkpt>
         <trkpt lat="34.341565" lon="-116.774515">
            <ele>1373.296875</ele>
            <time>2021-01-09T19:58:59.000Z</time>
         </trkpt>
         <trkpt lat="34.341456" lon="-116.774478">
            <ele>1374.296875</ele>
            <time>2021-01-09T19:59:03.000Z</time>
         </trkpt>
         <trkpt lat="34.341301" lon="-116.774435">
            <ele>1375.898438</ele>
            <time>2021-01-09T19:59:07.000Z</time>
         </trkpt>
         <trkpt lat="34.341065" lon="-116.774386">
            <ele>1376.898438</ele>
            <time>2021-01-09T19:59:14.000Z</time>
         </trkpt>
         <trkpt lat="34.341034" lon="-116.774371">
            <ele>1377.097656</ele>
            <time>2021-01-09T19:59:16.000Z</time>
         </trkpt>
         <trkpt lat="34.340923" lon="-116.774306">
            <ele>1377.597656</ele>
            <time>2021-01-09T19:59:18.000Z</time>
         </trkpt>
         <trkpt lat="34.340882" lon="-116.774292">
            <ele>1377.796875</ele>
            <time>2021-01-09T19:59:20.000Z</time>
         </trkpt>
         <trkpt lat="34.340793" lon="-116.774278">
            <ele>1377.898438</ele>
            <time>2021-01-09T19:59:21.000Z</time>
         </trkpt>
         <trkpt lat="34.339995" lon="-116.774203">
            <ele>1379.296875</ele>
            <time>2021-01-09T19:59:35.000Z</time>
         </trkpt>
         <trkpt lat="34.339706" lon="-116.774212">
            <ele>1379.898438</ele>
            <time>2021-01-09T19:59:39.000Z</time>
         </trkpt>
         <trkpt lat="34.339563" lon="-116.774231">
            <ele>1380.296875</ele>
            <time>2021-01-09T19:59:41.000Z</time>
         </trkpt>
         <trkpt lat="34.338574" lon="-116.774341">
            <ele>1386.699219</ele>
            <time>2021-01-09T19:59:56.000Z</time>
         </trkpt>
         <trkpt lat="34.338515" lon="-116.774340">
            <ele>1386.597656</ele>
            <time>2021-01-09T19:59:57.000Z</time>
         </trkpt>
         <trkpt lat="34.338275" lon="-116.774358">
            <ele>1390.296875</ele>
            <time>2021-01-09T20:00:03.000Z</time>
         </trkpt>
         <trkpt lat="34.338245" lon="-116.774352">
            <ele>1391.898438</ele>
            <time>2021-01-09T20:00:06.000Z</time>
         </trkpt>
         <trkpt lat="34.338115" lon="-116.774311">
            <ele>1391.699219</ele>
            <time>2021-01-09T20:00:10.000Z</time>
         </trkpt>
         <trkpt lat="34.338113" lon="-116.774312">
            <ele>1391.296875</ele>
            <time>2021-01-09T20:00:24.000Z</time>
         </trkpt>
         <trkpt lat="34.338133" lon="-116.774179">
            <ele>1391.296875</ele>
            <time>2021-01-09T20:00:25.000Z</time>
         </trkpt>
         <trkpt lat="34.338127" lon="-116.774145">
            <ele>1390.398438</ele>
            <time>2021-01-09T20:00:28.000Z</time>
         </trkpt>
         <trkpt lat="34.338121" lon="-116.774041">
            <ele>1390.097656</ele>
            <time>2021-01-09T20:00:29.000Z</time>
         </trkpt>
         <trkpt lat="34.338127" lon="-116.774005">
            <ele>1389.699219</ele>
            <time>2021-01-09T20:00:31.000Z</time>
         </trkpt>
         <trkpt lat="34.338148" lon="-116.773885">
            <ele>1389.500000</ele>
            <time>2021-01-09T20:00:33.000Z</time>
         </trkpt>
         <trkpt lat="34.338149" lon="-116.773840">
            <ele>1389.000000</ele>
            <time>2021-01-09T20:00:35.000Z</time>
         </trkpt>
         <trkpt lat="34.338130" lon="-116.773755">
            <ele>1388.796875</ele>
            <time>2021-01-09T20:00:36.000Z</time>
         </trkpt>
         <trkpt lat="34.338110" lon="-116.773718">
            <ele>1388.597656</ele>
            <time>2021-01-09T20:00:38.000Z</time>
         </trkpt>
         <trkpt lat="34.338063" lon="-116.773653">
            <ele>1388.398438</ele>
            <time>2021-01-09T20:00:39.000Z</time>
         </trkpt>
         <trkpt lat="34.337991" lon="-116.773566">
            <ele>1388.699219</ele>
            <time>2021-01-09T20:00:42.000Z</time>
         </trkpt>
         <trkpt lat="34.337870" lon="-116.773440">
            <ele>1387.796875</ele>
            <time>2021-01-09T20:00:47.000Z</time>
         </trkpt>
         <trkpt lat="34.337760" lon="-116.773350">
            <ele>1387.500000</ele>
            <time>2021-01-09T20:00:52.000Z</time>
         </trkpt>
         <trkpt lat="34.337746" lon="-116.773342">
            <ele>1388.199219</ele>
            <time>2021-01-09T20:00:56.000Z</time>
         </trkpt>
         <trkpt lat="34.337668" lon="-116.773293">
            <ele>1388.398438</ele>
            <time>2021-01-09T20:00:57.000Z</time>
         </trkpt>
         <trkpt lat="34.337582" lon="-116.773252">
            <ele>1388.199219</ele>
            <time>2021-01-09T20:01:00.000Z</time>
         </trkpt>
         <trkpt lat="34.337287" lon="-116.773108">
            <ele>1387.500000</ele>
            <time>2021-01-09T20:01:11.000Z</time>
         </trkpt>
         <trkpt lat="34.337266" lon="-116.773099">
            <ele>1387.296875</ele>
            <time>2021-01-09T20:01:14.000Z</time>
         </trkpt>
         <trkpt lat="34.337180" lon="-116.773046">
            <ele>1387.097656</ele>
            <time>2021-01-09T20:01:15.000Z</time>
         </trkpt>
         <trkpt lat="34.337090" lon="-116.772996">
            <ele>1387.796875</ele>
            <time>2021-01-09T20:01:18.000Z</time>
         </trkpt>
         <trkpt lat="34.337066" lon="-116.772988">
            <ele>1387.296875</ele>
            <time>2021-01-09T20:01:22.000Z</time>
         </trkpt>
         <trkpt lat="34.336912" lon="-116.772959">
            <ele>1387.597656</ele>
            <time>2021-01-09T20:01:27.000Z</time>
         </trkpt>
         <trkpt lat="34.336801" lon="-116.772937">
            <ele>1387.898438</ele>
            <time>2021-01-09T20:01:31.000Z</time>
         </trkpt>
         <trkpt lat="34.336776" lon="-116.772922">
            <ele>1388.398438</ele>
            <time>2021-01-09T20:01:34.000Z</time>
         </trkpt>
         <trkpt lat="34.336722" lon="-116.772844">
            <ele>1389.398438</ele>
            <time>2021-01-09T20:01:35.000Z</time>
         </trkpt>
         <trkpt lat="34.336715" lon="-116.772804">
            <ele>1389.199219</ele>
            <time>2021-01-09T20:01:37.000Z</time>
         </trkpt>
         <trkpt lat="34.336708" lon="-116.772731">
            <ele>1389.097656</ele>
            <time>2021-01-09T20:01:39.000Z</time>
         </trkpt>
         <trkpt lat="34.336721" lon="-116.772665">
            <ele>1388.500000</ele>
            <time>2021-01-09T20:01:48.000Z</time>
         </trkpt>
         <trkpt lat="34.336721" lon="-116.772665">
            <ele>1388.500000</ele>
            <time>2021-01-09T20:01:48.000Z</time>
         </trkpt>
         <extensions>
            <mgn:extensions xmlns:mgn="http://www.magellangps.com/mgnext/0/2">
               <mgn:onroute>0</mgn:onroute>
               <mgn:gpsloss>0</mgn:gpsloss>
            </mgn:extensions>
         </extensions>
      </trkseg><extensions>
      <mgn:extensions xmlns:mgn="http://www.magellangps.com/mgnext/0/2">
         <mgn:proplist>
            <mgn:prop key="VehicleType">,OHV</mgn:prop>
            <mgn:prop key="WD">No</mgn:prop>
            <mgn:prop key="LO">No</mgn:prop>
            <mgn:prop key="DIRT">Solid;</mgn:prop>
            <mgn:prop key="T_MUD"></mgn:prop>
            <mgn:prop key="T_SAND"></mgn:prop>
            <mgn:prop key="T_SNOW"></mgn:prop>
            <mgn:prop key="T_ICE"></mgn:prop>
            <mgn:prop key="T_WATER"></mgn:prop>
            <mgn:prop key="T_ROCK"></mgn:prop>
            <mgn:prop key="PITCH"></mgn:prop>
            <mgn:prop key="ROLL"></mgn:prop>
            <mgn:prop key="MAGELLAN_OFFROAD_KEY">0</mgn:prop>
            <mgn:prop key="Author">NotARubicon</mgn:prop>
            <mgn:prop key="Vehicle">9929</mgn:prop>
            <mgn:prop key="InstagramUpdate">True</mgn:prop>
            <mgn:prop key="MaxElevation">1391</mgn:prop>
            <mgn:prop key="MinElevation">1036</mgn:prop>
            <mgn:prop key="ElevationChange">351.90234</mgn:prop>
            <mgn:prop key="RecordedTime">7138</mgn:prop>
            <mgn:prop key="Length">13332.744</mgn:prop>
            <mgn:prop key="Type">Trail</mgn:prop>
            <mgn:prop key="Type2">Trail</mgn:prop>
         </mgn:proplist>
      </mgn:extensions>
   </extensions>
</trk>
</gpx>
